METAR Data
IDs: Format: Raw Decoded Include TAF

Data at: 0020 UTC 30 May 2020

PTRO 292350Z 09009KT 15SM SCT017TCU BKN120 BKN300 30/25 A2994 RMK TCU SE-SW